createdAt,value
2022-11-30T00:01:14.257Z,98.66
2022-11-30T00:03:40.774Z,98.55
2022-11-30T00:06:09.495Z,98.67
2022-11-30T00:08:36.347Z,98.64
2022-11-30T00:11:09.763Z,98.53
2022-11-30T00:13:36.378Z,98.56
2022-11-30T00:16:03.243Z,98.48
2022-11-30T00:18:29.703Z,98.96
2022-11-30T00:20:59.722Z,98.43
2022-11-30T00:23:26.140Z,98.17
2022-11-30T00:25:52.524Z,98.74
2022-11-30T00:28:18.906Z,98.85
2022-11-30T00:30:45.368Z,98.44
2022-11-30T00:33:11.886Z,98.50
2022-11-30T00:35:38.246Z,98.90
2022-11-30T00:38:04.661Z,98.71
2022-11-30T00:40:31.085Z,98.42
2022-11-30T00:42:57.564Z,98.58
2022-11-30T00:45:23.961Z,98.27
2022-11-30T00:47:50.368Z,98.43
2022-11-30T00:50:16.786Z,98.21
2022-11-30T00:52:43.196Z,98.00
2022-11-30T00:55:09.682Z,98.44
2022-11-30T00:57:36.067Z,98.35
2022-11-30T01:00:02.576Z,98.46
2022-11-30T01:02:29.008Z,98.47
2022-11-30T01:04:55.415Z,98.38
2022-11-30T01:07:21.801Z,98.87
2022-11-30T01:09:48.266Z,98.65
2022-11-30T01:12:14.608Z,98.73
2022-11-30T01:14:41.028Z,98.80
2022-11-30T01:17:07.423Z,98.51
2022-11-30T01:19:33.789Z,98.67
2022-11-30T01:22:00.211Z,98.72
2022-11-30T01:24:26.607Z,98.83
2022-11-30T01:26:53.046Z,98.44
2022-11-30T01:29:19.410Z,98.51
2022-11-30T01:31:45.816Z,98.44
2022-11-30T01:34:12.165Z,98.64
2022-11-30T01:36:38.989Z,98.61
2022-11-30T01:39:09.133Z,98.32
2022-11-30T01:41:36.855Z,98.40
2022-11-30T01:44:06.173Z,98.52
2022-11-30T01:46:43.993Z,98.53
2022-11-30T01:49:10.370Z,98.64
2022-11-30T01:51:43.336Z,98.52
2022-11-30T01:54:13.020Z,98.74
2022-11-30T01:56:48.501Z,98.91
2022-11-30T01:59:15.924Z,98.88
2022-11-30T02:01:42.437Z,98.90
2022-11-30T02:04:15.313Z,99.28
2022-11-30T02:06:42.245Z,99.10
2022-11-30T02:09:08.696Z,99.10
2022-11-30T02:11:35.295Z,99.65
2022-11-30T02:14:12.579Z,99.36
2022-11-30T02:17:08.121Z,99.47
2022-11-30T02:20:07.580Z,99.57
2022-11-30T02:22:51.997Z,99.72
2022-11-30T02:25:47.010Z,99.78
2022-11-30T02:28:41.477Z,99.51
2022-11-30T02:31:13.873Z,99.51
2022-11-30T02:33:41.916Z,99.76
2022-11-30T02:36:09.785Z,99.68
2022-11-30T02:38:37.626Z,99.89
2022-11-30T02:41:04.286Z,99.70
2022-11-30T02:43:32.009Z,100.00
2022-11-30T02:46:10.456Z,100.00
2022-11-30T02:48:53.278Z,100.00
2022-11-30T02:51:24.500Z,100.00
2022-11-30T02:53:51.272Z,99.95
2022-11-30T02:56:19.489Z,100.00
2022-11-30T02:58:46.252Z,100.00
2022-11-30T03:01:12.724Z,100.00
2022-11-30T03:03:39.181Z,100.00
2022-11-30T03:06:05.841Z,99.66
2022-11-30T03:08:32.202Z,99.23
2022-11-30T03:11:03.063Z,99.19
2022-11-30T03:13:31.335Z,99.01
2022-11-30T03:15:57.778Z,98.81
2022-11-30T03:18:24.376Z,98.81
2022-11-30T03:20:50.941Z,98.57
2022-11-30T03:23:18.539Z,98.38
2022-11-30T03:25:44.945Z,98.35
2022-11-30T03:28:11.363Z,98.14
2022-11-30T03:30:37.776Z,98.33
2022-11-30T03:33:04.305Z,98.31
2022-11-30T03:35:30.677Z,98.39
2022-11-30T03:37:57.559Z,98.72
2022-11-30T03:40:23.901Z,98.55
2022-11-30T03:42:50.325Z,98.95
2022-11-30T03:45:16.759Z,98.87
2022-11-30T03:47:43.555Z,99.01
2022-11-30T03:50:11.182Z,99.04
2022-11-30T03:52:37.749Z,98.79
2022-11-30T03:55:04.441Z,99.09
2022-11-30T03:57:30.803Z,98.80
2022-11-30T03:59:57.242Z,99.24
2022-11-30T04:02:23.799Z,99.21
2022-11-30T04:04:50.294Z,99.31
2022-11-30T04:07:16.859Z,99.52
2022-11-30T04:09:43.385Z,99.19
2022-11-30T04:12:09.819Z,99.54
2022-11-30T04:14:36.212Z,99.60
2022-11-30T04:17:02.649Z,99.54
2022-11-30T04:19:29.058Z,99.38
2022-11-30T04:21:55.502Z,99.57
2022-11-30T04:24:21.973Z,99.05
2022-11-30T04:26:48.365Z,99.04
2022-11-30T04:29:14.801Z,99.09
2022-11-30T04:31:41.271Z,99.28
2022-11-30T04:34:07.731Z,99.31
2022-11-30T04:36:34.110Z,98.69
2022-11-30T04:39:00.458Z,98.32
2022-11-30T04:41:26.878Z,98.17
2022-11-30T04:43:53.334Z,97.36
2022-11-30T04:46:19.739Z,96.67
2022-11-30T04:48:46.108Z,97.07
2022-11-30T04:51:12.607Z,96.86
2022-11-30T04:53:39.140Z,97.42
2022-11-30T04:56:10.401Z,97.28
2022-11-30T04:58:38.573Z,97.35
2022-11-30T05:01:05.093Z,97.31
2022-11-30T05:03:31.554Z,97.48
2022-11-30T05:05:57.989Z,96.83
2022-11-30T05:08:24.456Z,97.56
2022-11-30T05:10:54.754Z,97.08
2022-11-30T05:13:23.138Z,96.99
2022-11-30T05:15:49.963Z,96.56
2022-11-30T05:18:16.714Z,97.04
2022-11-30T05:20:48.135Z,96.88
2022-11-30T05:23:14.743Z,96.66
2022-11-30T05:25:41.186Z,96.90
2022-11-30T05:28:07.597Z,97.10
2022-11-30T05:30:34.022Z,96.59
2022-11-30T05:33:00.475Z,95.91
2022-11-30T05:35:26.896Z,95.77
2022-11-30T05:37:53.305Z,95.70
2022-11-30T05:40:19.817Z,96.35
2022-11-30T05:42:46.179Z,96.11
2022-11-30T05:45:12.673Z,96.05
2022-11-30T05:47:39.121Z,95.88
2022-11-30T05:50:06.381Z,95.56
2022-11-30T05:52:32.760Z,96.11
2022-11-30T05:54:59.462Z,95.29
2022-11-30T05:57:25.834Z,95.17
2022-11-30T05:59:52.236Z,95.08
2022-11-30T06:02:21.449Z,95.76
2022-11-30T06:04:51.627Z,95.88
2022-11-30T06:07:18.002Z,95.37
2022-11-30T06:09:44.376Z,95.86
2022-11-30T06:12:10.808Z,95.86
2022-11-30T06:14:37.174Z,96.11
2022-11-30T06:17:03.705Z,96.43
2022-11-30T06:19:30.156Z,96.07
2022-11-30T06:21:56.579Z,96.07
2022-11-30T06:24:23.012Z,96.23
2022-11-30T06:26:49.410Z,96.30
2022-11-30T06:29:15.766Z,96.60
2022-11-30T06:31:42.279Z,96.70
2022-11-30T06:34:08.862Z,96.08
2022-11-30T06:36:36.410Z,96.95
2022-11-30T06:39:03.717Z,96.90
2022-11-30T06:41:30.207Z,97.17
2022-11-30T06:43:56.746Z,97.35
2022-11-30T06:46:23.888Z,97.06
2022-11-30T06:48:50.900Z,96.97
2022-11-30T06:51:17.890Z,97.24
2022-11-30T06:53:45.444Z,96.91
2022-11-30T06:56:12.730Z,96.75
2022-11-30T06:58:40.244Z,96.82
2022-11-30T07:01:09.699Z,97.06
2022-11-30T07:03:37.076Z,97.18
2022-11-30T07:06:11.562Z,97.03
2022-11-30T07:08:39.185Z,97.14
2022-11-30T07:11:06.431Z,97.26
2022-11-30T07:13:33.355Z,97.48
2022-11-30T07:16:02.536Z,97.72
2022-11-30T07:18:32.097Z,97.25
2022-11-30T07:21:00.831Z,97.16
2022-11-30T07:23:48.450Z,96.78
2022-11-30T07:26:18.914Z,96.93
2022-11-30T07:28:51.242Z,97.41
2022-11-30T07:31:19.971Z,97.43
2022-11-30T07:33:47.650Z,97.40
2022-11-30T07:36:15.440Z,97.08
2022-11-30T07:38:41.888Z,96.90
2022-11-30T07:41:08.666Z,96.64
2022-11-30T07:43:35.229Z,96.83
2022-11-30T07:46:02.796Z,96.56
2022-11-30T07:48:29.235Z,96.60
2022-11-30T07:51:02.490Z,96.25
2022-11-30T07:53:28.962Z,95.92
2022-11-30T07:56:01.596Z,96.41
2022-11-30T07:58:29.681Z,96.00
2022-11-30T08:01:02.772Z,96.85
2022-11-30T08:03:32.377Z,96.54
2022-11-30T08:06:08.841Z,97.04
2022-11-30T08:08:40.959Z,97.25
2022-11-30T08:11:09.350Z,96.70
2022-11-30T08:13:35.909Z,96.79
2022-11-30T08:16:08.374Z,96.30
2022-11-30T08:18:35.318Z,96.01
2022-11-30T08:21:05.562Z,96.20
2022-11-30T08:23:38.064Z,96.11
2022-11-30T08:26:07.186Z,95.86
2022-11-30T08:28:37.509Z,96.08
2022-11-30T08:31:07.418Z,96.49
2022-11-30T08:33:35.563Z,95.98
2022-11-30T08:36:20.117Z,95.74
2022-11-30T08:38:47.623Z,96.32
2022-11-30T08:41:16.606Z,96.16
2022-11-30T08:43:43.312Z,95.88
2022-11-30T08:46:42.636Z,96.50
2022-11-30T08:49:19.808Z,96.16
2022-11-30T08:54:33.789Z,96.04
2022-11-30T08:57:00.183Z,96.14
2022-11-30T08:59:26.654Z,96.14
2022-11-30T09:01:53.213Z,96.20
2022-11-30T09:04:19.592Z,95.93
2022-11-30T09:06:46.059Z,96.21
2022-11-30T09:09:12.402Z,96.17
2022-11-30T09:11:38.926Z,95.62
2022-11-30T09:14:05.483Z,94.89
2022-11-30T09:16:32.050Z,95.42
2022-11-30T09:18:58.573Z,96.04
2022-11-30T09:21:25.737Z,95.62
2022-11-30T09:23:52.786Z,95.15
2022-11-30T09:26:21.675Z,95.33
2022-11-30T09:28:48.582Z,95.37
2022-11-30T09:31:21.244Z,95.23
2022-11-30T09:33:48.500Z,95.38
2022-11-30T09:36:17.289Z,95.84
2022-11-30T09:38:43.978Z,95.73
2022-11-30T09:41:13.211Z,95.67
2022-11-30T09:43:52.620Z,95.88
2022-11-30T09:46:25.922Z,95.59
2022-11-30T09:49:18.758Z,95.55
2022-11-30T09:51:49.567Z,95.73
2022-11-30T09:54:20.991Z,95.57
2022-11-30T09:56:47.540Z,95.40
2022-11-30T09:59:19.579Z,95.81
2022-11-30T10:01:51.991Z,95.32
2022-11-30T10:04:29.921Z,95.25
2022-11-30T10:07:09.888Z,95.81
2022-11-30T10:12:52.668Z,94.98
2022-11-30T10:15:22.049Z,95.44
2022-11-30T10:18:30.173Z,94.71
2022-11-30T10:21:16.001Z,95.58
2022-11-30T10:23:58.497Z,95.73
2022-11-30T10:26:34.426Z,95.15
2022-11-30T10:29:20.375Z,95.12
2022-11-30T10:31:49.567Z,95.31
2022-11-30T10:34:21.791Z,95.55
2022-11-30T10:36:54.924Z,95.22
2022-11-30T10:39:31.566Z,95.17
2022-11-30T10:42:09.764Z,95.03
2022-11-30T10:44:40.383Z,94.62
2022-11-30T10:47:26.385Z,94.77
2022-11-30T10:49:53.043Z,95.15
2022-11-30T10:52:32.291Z,94.96
2022-11-30T10:55:04.605Z,94.74
2022-11-30T10:57:33.155Z,94.70
2022-11-30T11:00:02.364Z,94.51
2022-11-30T11:02:34.747Z,95.01
2022-11-30T11:05:28.858Z,94.24
2022-11-30T11:08:05.913Z,94.32
2022-11-30T11:10:42.672Z,94.50
2022-11-30T11:13:42.529Z,94.23
2022-11-30T11:16:13.487Z,94.08
2022-11-30T11:18:55.095Z,94.51
2022-11-30T11:21:23.289Z,94.33
2022-11-30T11:23:52.919Z,95.13
2022-11-30T11:26:29.844Z,94.61
2022-11-30T11:28:59.549Z,94.00
2022-11-30T11:31:47.287Z,94.30
2022-11-30T11:34:26.461Z,94.52
2022-11-30T11:37:15.503Z,94.43
2022-11-30T11:39:41.950Z,93.92
2022-11-30T11:42:21.984Z,94.16
2022-11-30T11:44:59.621Z,94.45
2022-11-30T11:47:29.607Z,94.78
2022-11-30T11:50:20.848Z,94.76
2022-11-30T11:53:11.725Z,94.51
2022-11-30T11:55:39.526Z,94.74
2022-11-30T11:58:06.295Z,94.09
2022-11-30T12:00:33.205Z,93.93
2022-11-30T12:03:05.726Z,94.15
2022-11-30T12:05:43.952Z,93.67
2022-11-30T12:08:34.913Z,93.53
2022-11-30T12:11:23.268Z,93.34
2022-11-30T12:13:50.334Z,93.70
2022-11-30T12:16:32.905Z,93.44
2022-11-30T12:19:36.894Z,93.83
2022-11-30T12:22:27.816Z,93.35
2022-11-30T12:25:21.722Z,93.70
2022-11-30T12:27:54.483Z,93.16
2022-11-30T12:30:32.476Z,93.29
2022-11-30T12:33:13.206Z,93.04
2022-11-30T12:36:21.597Z,93.17
2022-11-30T12:38:55.879Z,94.12
2022-11-30T12:41:34.481Z,93.14
2022-11-30T12:44:12.724Z,92.85
2022-11-30T12:47:17.625Z,93.55
2022-11-30T12:50:19.202Z,93.53
2022-11-30T12:53:01.462Z,93.18
2022-11-30T12:55:48.115Z,93.17
2022-11-30T12:58:25.626Z,93.03
2022-11-30T13:01:01.164Z,93.19
2022-11-30T13:03:49.459Z,93.28
2022-11-30T13:06:24.507Z,93.24
2022-11-30T13:09:03.529Z,93.58
2022-11-30T13:11:56.316Z,93.56
2022-11-30T13:14:25.585Z,93.79
2022-11-30T13:17:01.478Z,93.38
2022-11-30T13:20:14.357Z,93.49
2022-11-30T13:22:50.660Z,93.51
2022-11-30T13:26:09.939Z,93.56
2022-11-30T13:28:42.233Z,93.18
2022-11-30T13:31:33.977Z,93.59
2022-11-30T13:34:00.798Z,93.73
2022-11-30T13:36:33.015Z,93.48
2022-11-30T13:39:14.278Z,93.79
2022-11-30T13:41:43.909Z,93.46
2022-11-30T13:44:22.392Z,94.23
2022-11-30T13:46:53.407Z,94.46
2022-11-30T13:49:38.028Z,94.23
2022-11-30T13:52:23.223Z,94.32
2022-11-30T13:54:54.523Z,94.06
2022-11-30T13:57:30.190Z,93.57
2022-11-30T13:59:58.082Z,93.60
2022-11-30T14:02:33.738Z,93.52
2022-11-30T14:05:18.581Z,93.96
2022-11-30T14:08:10.010Z,94.13
2022-11-30T14:10:37.824Z,93.98
2022-11-30T14:13:10.599Z,94.05
2022-11-30T14:15:40.725Z,94.10
2022-11-30T14:18:10.201Z,94.63
2022-11-30T14:20:43.828Z,94.51
2022-11-30T14:23:29.596Z,94.33
2022-11-30T14:26:00.524Z,94.97
2022-11-30T14:28:58.969Z,94.84
2022-11-30T14:31:31.652Z,95.02
2022-11-30T14:34:06.329Z,94.56
2022-11-30T14:36:36.022Z,94.28
2022-11-30T14:39:02.554Z,95.29
2022-11-30T14:41:30.947Z,95.87
2022-11-30T14:44:02.904Z,96.08
2022-11-30T14:46:30.551Z,95.94
2022-11-30T14:49:07.042Z,95.91
2022-11-30T14:51:33.722Z,95.47
2022-11-30T14:54:15.234Z,95.72
2022-11-30T14:56:52.189Z,95.71
2022-11-30T14:59:45.862Z,95.91
2022-11-30T15:02:33.625Z,95.97
2022-11-30T15:05:00.685Z,96.21
2022-11-30T15:07:29.791Z,96.29
2022-11-30T15:10:12.298Z,96.45
2022-11-30T15:12:40.667Z,96.59
2022-11-30T15:15:27.848Z,96.69
2022-11-30T15:18:18.499Z,96.73
2022-11-30T15:20:49.935Z,96.26
2022-11-30T15:23:17.151Z,96.41
2022-11-30T15:25:47.575Z,96.15
2022-11-30T15:28:24.387Z,96.51
2022-11-30T15:30:56.867Z,96.36
2022-11-30T15:33:26.879Z,96.73
2022-11-30T15:36:16.301Z,96.13
2022-11-30T15:38:47.097Z,96.12
2022-11-30T15:41:21.404Z,95.24
2022-11-30T15:43:56.275Z,96.31
2022-11-30T15:46:46.081Z,96.27
2022-11-30T15:49:12.915Z,96.08
2022-11-30T15:51:45.172Z,95.64
2022-11-30T15:54:11.868Z,95.63
2022-11-30T15:56:38.441Z,95.64
2022-11-30T15:59:08.092Z,95.57
2022-11-30T16:02:04.654Z,95.28
2022-11-30T16:05:13.790Z,95.17
2022-11-30T16:07:53.807Z,95.14
2022-11-30T16:10:27.604Z,95.61
2022-11-30T16:12:54.978Z,95.42
2022-11-30T16:15:28.347Z,95.50
2022-11-30T16:18:21.300Z,95.34
2022-11-30T16:20:54.059Z,95.12
2022-11-30T16:23:20.927Z,95.24
2022-11-30T16:25:49.033Z,95.07
2022-11-30T16:28:17.342Z,94.89
2022-11-30T16:30:45.136Z,95.37
2022-11-30T16:33:24.470Z,95.34
2022-11-30T16:35:53.816Z,95.40
2022-11-30T16:38:20.638Z,95.00
2022-11-30T16:40:47.112Z,95.28
2022-11-30T16:43:14.332Z,95.24
2022-11-30T16:45:42.146Z,95.41
2022-11-30T16:48:08.602Z,95.96
2022-11-30T16:50:36.307Z,95.38
2022-11-30T16:53:04.637Z,95.26
2022-11-30T16:55:37.733Z,95.57
2022-11-30T16:58:04.758Z,95.94
2022-11-30T17:00:32.025Z,95.65
2022-11-30T17:03:22.495Z,95.03
2022-11-30T17:05:49.274Z,95.35
2022-11-30T17:08:15.874Z,95.23
2022-11-30T17:10:42.788Z,95.82
2022-11-30T17:13:13.879Z,95.53
2022-11-30T17:15:40.564Z,95.41
2022-11-30T17:18:07.085Z,95.00
2022-11-30T17:20:35.806Z,95.56
2022-11-30T17:23:02.626Z,95.47
2022-11-30T17:25:29.119Z,95.71
2022-11-30T17:27:55.557Z,95.06
2022-11-30T17:30:23.746Z,94.94
2022-11-30T17:32:50.787Z,95.17
2022-11-30T17:35:18.634Z,95.45
2022-11-30T17:37:45.546Z,95.13
2022-11-30T17:40:13.144Z,94.77
2022-11-30T17:42:40.552Z,95.34
2022-11-30T17:45:07.560Z,95.48
2022-11-30T17:47:33.972Z,95.18
2022-11-30T17:50:00.423Z,95.55
2022-11-30T17:52:26.895Z,95.24
2022-11-30T17:54:53.276Z,94.79
2022-11-30T17:57:19.700Z,94.86
2022-11-30T17:59:46.113Z,94.61
2022-11-30T18:02:12.620Z,94.68
2022-11-30T18:04:39.686Z,95.12
2022-11-30T18:07:06.268Z,95.26
2022-11-30T18:09:37.805Z,95.57
2022-11-30T18:12:07.512Z,95.60
2022-11-30T18:14:34.021Z,95.93
2022-11-30T18:17:00.470Z,95.79
2022-11-30T18:19:27.065Z,95.43
2022-11-30T18:21:55.281Z,95.77
2022-11-30T18:24:25.227Z,95.71
2022-11-30T18:26:52.535Z,95.73
2022-11-30T18:29:19.115Z,95.75
2022-11-30T18:31:48.114Z,95.56
2022-11-30T18:34:14.851Z,95.42
2022-11-30T18:36:41.234Z,95.46
2022-11-30T18:39:07.653Z,95.46
2022-11-30T18:41:34.053Z,95.68
2022-11-30T18:44:00.453Z,95.61
2022-11-30T18:46:27.473Z,95.52
2022-11-30T18:48:54.610Z,95.67
2022-11-30T18:51:24.070Z,95.11
2022-11-30T18:53:57.707Z,95.02
2022-11-30T18:56:26.016Z,95.21
2022-11-30T18:59:13.276Z,95.38
2022-11-30T19:01:40.497Z,95.63
2022-11-30T19:04:09.529Z,95.50
2022-11-30T19:06:37.770Z,95.22
2022-11-30T19:09:08.494Z,95.63
2022-11-30T19:11:35.606Z,95.28
2022-11-30T19:14:03.282Z,95.30
2022-11-30T19:16:30.879Z,95.26
2022-11-30T19:19:06.617Z,95.49
2022-11-30T19:21:33.786Z,95.61
2022-11-30T19:24:00.370Z,95.46
2022-11-30T19:26:28.410Z,95.22
2022-11-30T19:28:56.249Z,95.08
2022-11-30T19:31:24.089Z,95.20
2022-11-30T19:33:53.028Z,95.41
2022-11-30T19:36:24.699Z,95.47
2022-11-30T19:38:51.514Z,95.27
2022-11-30T19:41:19.979Z,95.57
2022-11-30T19:43:53.163Z,95.55
2022-11-30T19:46:21.436Z,95.26
2022-11-30T19:48:47.974Z,95.09
2022-11-30T19:51:18.675Z,95.12
2022-11-30T19:53:45.466Z,94.74
2022-11-30T19:56:14.645Z,94.67
2022-11-30T19:58:43.816Z,95.00
2022-11-30T20:01:14.539Z,94.49
2022-11-30T20:03:44.440Z,93.73
2022-11-30T20:06:11.687Z,94.18
2022-11-30T20:08:38.628Z,94.41
2022-11-30T20:11:09.580Z,93.61
2022-11-30T20:13:36.447Z,93.62
2022-11-30T20:16:10.716Z,93.34
2022-11-30T20:18:41.282Z,93.22
2022-11-30T20:21:23.322Z,93.28
2022-11-30T20:23:51.030Z,93.29
2022-11-30T20:26:20.606Z,94.29
2022-11-30T20:28:48.112Z,94.04
2022-11-30T20:31:16.104Z,93.48
2022-11-30T20:33:43.157Z,94.31
2022-11-30T20:36:10.939Z,93.99
2022-11-30T20:38:37.941Z,94.08
2022-11-30T20:41:08.057Z,94.44
2022-11-30T20:43:34.452Z,94.66
2022-11-30T20:46:00.929Z,94.71
2022-11-30T20:48:28.024Z,95.29
2022-11-30T20:51:22.274Z,95.55
2022-11-30T20:53:41.784Z,95.32
2022-11-30T20:56:08.964Z,95.71
2022-11-30T20:58:35.614Z,95.48
2022-11-30T21:01:18.812Z,95.47
2022-11-30T21:03:45.834Z,95.91
2022-11-30T21:06:13.161Z,96.03
2022-11-30T21:08:40.475Z,96.06
2022-11-30T21:11:12.498Z,96.40
2022-11-30T21:13:40.466Z,96.44
2022-11-30T21:16:08.225Z,96.19
2022-11-30T21:18:35.969Z,96.43
2022-11-30T21:21:13.439Z,96.90
2022-11-30T21:23:40.074Z,96.24
2022-11-30T21:26:13.653Z,96.24
2022-11-30T21:28:40.051Z,96.12
2022-11-30T21:31:06.898Z,95.94
2022-11-30T21:33:33.598Z,95.92
2022-11-30T21:36:00.141Z,96.15
2022-11-30T21:38:26.535Z,96.00
2022-11-30T21:40:55.024Z,95.75
2022-11-30T21:43:21.666Z,96.25
2022-11-30T21:46:02.687Z,96.41
2022-11-30T21:48:30.828Z,95.92
2022-11-30T21:51:01.761Z,96.12
2022-11-30T21:53:29.872Z,96.26
2022-11-30T21:56:01.975Z,96.07
2022-11-30T21:58:30.623Z,95.48
2022-11-30T22:00:58.313Z,95.99
2022-11-30T22:03:25.075Z,95.96
2022-11-30T22:05:59.016Z,95.85
2022-11-30T22:08:25.634Z,96.21
2022-11-30T22:10:52.050Z,95.92
2022-11-30T22:13:18.442Z,96.39
2022-11-30T22:15:44.821Z,96.14
2022-11-30T22:18:11.239Z,96.01
2022-11-30T22:20:37.721Z,95.84
2022-11-30T22:23:04.112Z,95.55
2022-11-30T22:25:30.611Z,95.78
2022-11-30T22:27:57.025Z,96.63
2022-11-30T22:30:23.420Z,96.34
2022-11-30T22:32:49.825Z,95.98
2022-11-30T22:35:16.221Z,95.72
2022-11-30T22:37:42.676Z,95.70
2022-11-30T22:40:09.865Z,95.73
2022-11-30T22:42:36.283Z,95.57
2022-11-30T22:45:02.683Z,95.22
2022-11-30T22:47:29.059Z,95.56
2022-11-30T22:49:55.553Z,95.88
2022-11-30T22:52:36.388Z,95.82
2022-11-30T22:55:08.890Z,95.39
2022-11-30T22:57:35.349Z,96.00
2022-11-30T23:00:01.820Z,95.53
2022-11-30T23:02:28.317Z,95.57
2022-11-30T23:04:54.675Z,95.16
2022-11-30T23:07:21.046Z,95.08
2022-11-30T23:09:47.631Z,95.11
2022-11-30T23:12:24.843Z,95.26
2022-11-30T23:15:00.736Z,95.29
2022-11-30T23:17:27.103Z,94.69
2022-11-30T23:19:53.496Z,95.17
2022-11-30T23:22:19.905Z,94.81
2022-11-30T23:24:46.258Z,95.11
2022-11-30T23:27:12.816Z,95.22
2022-11-30T23:29:40.308Z,94.33
2022-11-30T23:32:08.023Z,94.44
2022-11-30T23:34:34.536Z,95.21
2022-11-30T23:37:00.913Z,94.66
2022-11-30T23:39:27.329Z,94.28
2022-11-30T23:41:53.738Z,94.23
2022-11-30T23:44:20.133Z,94.68
2022-11-30T23:46:46.979Z,94.76
2022-11-30T23:49:14.177Z,94.08
2022-11-30T23:51:41.145Z,94.39
2022-11-30T23:54:07.554Z,94.40
2022-11-30T23:56:33.933Z,94.41
2022-11-30T23:59:00.373Z,94.11
